sensor_id;sensor_type;location;lat;lon;timestamp;P1;durP1;ratioP1;P2;durP2;ratioP2
17175;SDS011;8703;48.996;9.594;2022-07-04T00:00:04;4.13;;;1.50;;
17175;SDS011;8703;48.996;9.594;2022-07-04T00:02:34;1.77;;;1.42;;
17175;SDS011;8703;48.996;9.594;2022-07-04T00:05:02;1.52;;;1.30;;
17175;SDS011;8703;48.996;9.594;2022-07-04T00:07:34;2.75;;;1.60;;
17175;SDS011;8703;48.996;9.594;2022-07-04T00:10:01;2.75;;;1.45;;
17175;SDS011;8703;48.996;9.594;2022-07-04T00:12:29;1.65;;;1.50;;
17175;SDS011;8703;48.996;9.594;2022-07-04T00:14:56;2.13;;;1.20;;
17175;SDS011;8703;48.996;9.594;2022-07-04T00:17:24;2.47;;;1.40;;
17175;SDS011;8703;48.996;9.594;2022-07-04T00:19:52;2.20;;;1.40;;
17175;SDS011;8703;48.996;9.594;2022-07-04T00:22:20;3.17;;;1.48;;
17175;SDS011;8703;48.996;9.594;2022-07-04T00:24:47;3.95;;;1.40;;
17175;SDS011;8703;48.996;9.594;2022-07-04T00:27:14;3.10;;;1.40;;
17175;SDS011;8703;48.996;9.594;2022-07-04T00:29:42;2.60;;;1.30;;
17175;SDS011;8703;48.996;9.594;2022-07-04T00:32:09;3.10;;;1.48;;
17175;SDS011;8703;48.996;9.594;2022-07-04T00:34:37;2.78;;;1.27;;
17175;SDS011;8703;48.996;9.594;2022-07-04T00:37:05;2.70;;;1.30;;
17175;SDS011;8703;48.996;9.594;2022-07-04T00:39:33;2.80;;;1.30;;
17175;SDS011;8703;48.996;9.594;2022-07-04T00:42:00;1.90;;;1.40;;
17175;SDS011;8703;48.996;9.594;2022-07-04T00:44:27;2.65;;;1.45;;
17175;SDS011;8703;48.996;9.594;2022-07-04T00:46:55;2.55;;;1.45;;
17175;SDS011;8703;48.996;9.594;2022-07-04T00:49:22;1.70;;;1.35;;
17175;SDS011;8703;48.996;9.594;2022-07-04T00:51:50;2.25;;;1.45;;
17175;SDS011;8703;48.996;9.594;2022-07-04T00:54:19;1.50;;;1.40;;
17175;SDS011;8703;48.996;9.594;2022-07-04T00:56:46;2.78;;;1.30;;
17175;SDS011;8703;48.996;9.594;2022-07-04T00:59:14;1.77;;;1.30;;
17175;SDS011;8703;48.996;9.594;2022-07-04T01:01:41;1.73;;;1.45;;
17175;SDS011;8703;48.996;9.594;2022-07-04T01:04:08;2.50;;;1.50;;
17175;SDS011;8703;48.996;9.594;2022-07-04T01:06:36;2.47;;;1.42;;
17175;SDS011;8703;48.996;9.594;2022-07-04T01:09:04;1.80;;;1.42;;
17175;SDS011;8703;48.996;9.594;2022-07-04T01:11:33;1.73;;;1.30;;
17175;SDS011;8703;48.996;9.594;2022-07-04T01:14:00;4.00;;;1.58;;
17175;SDS011;8703;48.996;9.594;2022-07-04T01:16:30;4.03;;;2.50;;
17175;SDS011;8703;48.996;9.594;2022-07-04T01:18:58;4.57;;;3.17;;
17175;SDS011;8703;48.996;9.594;2022-07-04T01:21:26;3.05;;;2.40;;
17175;SDS011;8703;48.996;9.594;2022-07-04T01:23:54;3.30;;;2.08;;
17175;SDS011;8703;48.996;9.594;2022-07-04T01:26:21;3.85;;;2.60;;
17175;SDS011;8703;48.996;9.594;2022-07-04T01:28:48;6.88;;;3.03;;
17175;SDS011;8703;48.996;9.594;2022-07-04T01:31:16;4.53;;;2.53;;
17175;SDS011;8703;48.996;9.594;2022-07-04T01:33:43;3.95;;;2.30;;
17175;SDS011;8703;48.996;9.594;2022-07-04T01:36:10;4.57;;;2.42;;
17175;SDS011;8703;48.996;9.594;2022-07-04T01:38:39;3.75;;;2.55;;
17175;SDS011;8703;48.996;9.594;2022-07-04T01:41:06;2.00;;;1.60;;
17175;SDS011;8703;48.996;9.594;2022-07-04T01:43:34;5.15;;;2.15;;
17175;SDS011;8703;48.996;9.594;2022-07-04T01:46:01;2.53;;;1.77;;
17175;SDS011;8703;48.996;9.594;2022-07-04T01:48:28;3.03;;;1.63;;
17175;SDS011;8703;48.996;9.594;2022-07-04T01:50:56;2.92;;;1.65;;
17175;SDS011;8703;48.996;9.594;2022-07-04T01:53:23;5.25;;;2.10;;
17175;SDS011;8703;48.996;9.594;2022-07-04T01:55:52;3.35;;;2.10;;
17175;SDS011;8703;48.996;9.594;2022-07-04T01:58:19;4.70;;;1.80;;
17175;SDS011;8703;48.996;9.594;2022-07-04T02:00:46;2.80;;;1.90;;
17175;SDS011;8703;48.996;9.594;2022-07-04T02:03:31;3.65;;;1.88;;
17175;SDS011;8703;48.996;9.594;2022-07-04T02:05:58;4.40;;;1.80;;
17175;SDS011;8703;48.996;9.594;2022-07-04T02:08:26;5.50;;;2.05;;
17175;SDS011;8703;48.996;9.594;2022-07-04T02:11:14;2.20;;;1.70;;
17175;SDS011;8703;48.996;9.594;2022-07-04T02:13:42;3.13;;;2.20;;
17175;SDS011;8703;48.996;9.594;2022-07-04T02:16:08;3.05;;;2.10;;
17175;SDS011;8703;48.996;9.594;2022-07-04T02:18:35;3.75;;;1.88;;
17175;SDS011;8703;48.996;9.594;2022-07-04T02:21:03;5.20;;;1.92;;
17175;SDS011;8703;48.996;9.594;2022-07-04T02:23:30;2.22;;;2.05;;
17175;SDS011;8703;48.996;9.594;2022-07-04T02:25:57;2.38;;;1.60;;
17175;SDS011;8703;48.996;9.594;2022-07-04T02:28:26;4.00;;;1.70;;
17175;SDS011;8703;48.996;9.594;2022-07-04T02:30:54;4.13;;;1.70;;
17175;SDS011;8703;48.996;9.594;2022-07-04T02:33:21;2.90;;;1.50;;
17175;SDS011;8703;48.996;9.594;2022-07-04T02:35:48;2.97;;;1.63;;
17175;SDS011;8703;48.996;9.594;2022-07-04T02:38:15;2.72;;;1.65;;
17175;SDS011;8703;48.996;9.594;2022-07-04T02:40:43;4.22;;;1.50;;
17175;SDS011;8703;48.996;9.594;2022-07-04T02:43:10;2.83;;;1.70;;
17175;SDS011;8703;48.996;9.594;2022-07-04T02:45:39;2.67;;;1.75;;
17175;SDS011;8703;48.996;9.594;2022-07-04T02:48:06;3.63;;;1.90;;
17175;SDS011;8703;48.996;9.594;2022-07-04T02:50:33;3.53;;;1.70;;
17175;SDS011;8703;48.996;9.594;2022-07-04T02:53:01;1.80;;;1.42;;
17175;SDS011;8703;48.996;9.594;2022-07-04T02:55:28;3.80;;;1.80;;
17175;SDS011;8703;48.996;9.594;2022-07-04T02:57:55;2.60;;;1.50;;
17175;SDS011;8703;48.996;9.594;2022-07-04T03:00:23;2.05;;;1.60;;
17175;SDS011;8703;48.996;9.594;2022-07-04T03:02:51;1.88;;;1.67;;
17175;SDS011;8703;48.996;9.594;2022-07-04T03:05:20;2.83;;;1.60;;
17175;SDS011;8703;48.996;9.594;2022-07-04T03:07:47;2.08;;;1.70;;
17175;SDS011;8703;48.996;9.594;2022-07-04T03:10:15;3.13;;;1.63;;
17175;SDS011;8703;48.996;9.594;2022-07-04T03:12:42;2.33;;;1.80;;
17175;SDS011;8703;48.996;9.594;2022-07-04T03:15:09;3.05;;;1.80;;
17175;SDS011;8703;48.996;9.594;2022-07-04T03:17:37;2.55;;;1.85;;
17175;SDS011;8703;48.996;9.594;2022-07-04T03:20:07;2.80;;;1.80;;
17175;SDS011;8703;48.996;9.594;2022-07-04T03:22:35;2.92;;;1.88;;
17175;SDS011;8703;48.996;9.594;2022-07-04T03:25:02;3.53;;;2.08;;
17175;SDS011;8703;48.996;9.594;2022-07-04T03:27:30;2.53;;;1.60;;
17175;SDS011;8703;48.996;9.594;2022-07-04T03:29:58;4.20;;;1.65;;
17175;SDS011;8703;48.996;9.594;2022-07-04T03:32:25;3.17;;;1.80;;
17175;SDS011;8703;48.996;9.594;2022-07-04T03:34:52;2.85;;;1.70;;
17175;SDS011;8703;48.996;9.594;2022-07-04T03:37:24;1.85;;;1.67;;
17175;SDS011;8703;48.996;9.594;2022-07-04T03:39:51;2.13;;;1.92;;
17175;SDS011;8703;48.996;9.594;2022-07-04T03:42:19;2.03;;;1.83;;
17175;SDS011;8703;48.996;9.594;2022-07-04T03:44:46;2.42;;;1.80;;
17175;SDS011;8703;48.996;9.594;2022-07-04T03:47:13;2.20;;;1.85;;
17175;SDS011;8703;48.996;9.594;2022-07-04T03:49:41;3.35;;;1.67;;
17175;SDS011;8703;48.996;9.594;2022-07-04T03:52:08;4.47;;;1.88;;
17175;SDS011;8703;48.996;9.594;2022-07-04T03:54:37;3.05;;;1.80;;
17175;SDS011;8703;48.996;9.594;2022-07-04T03:57:04;3.17;;;1.90;;
17175;SDS011;8703;48.996;9.594;2022-07-04T03:59:32;2.75;;;1.83;;
17175;SDS011;8703;48.996;9.594;2022-07-04T04:01:59;2.93;;;1.80;;
17175;SDS011;8703;48.996;9.594;2022-07-04T04:04:26;2.23;;;2.03;;
17175;SDS011;8703;48.996;9.594;2022-07-04T04:07:11;2.38;;;1.80;;
17175;SDS011;8703;48.996;9.594;2022-07-04T04:09:40;2.67;;;1.83;;
17175;SDS011;8703;48.996;9.594;2022-07-04T04:12:08;2.13;;;1.90;;
17175;SDS011;8703;48.996;9.594;2022-07-04T04:14:35;2.75;;;1.90;;
17175;SDS011;8703;48.996;9.594;2022-07-04T04:17:03;2.25;;;1.83;;
17175;SDS011;8703;48.996;9.594;2022-07-04T04:19:30;3.67;;;2.10;;
17175;SDS011;8703;48.996;9.594;2022-07-04T04:21:57;2.42;;;1.90;;
17175;SDS011;8703;48.996;9.594;2022-07-04T04:24:25;3.28;;;2.00;;
17175;SDS011;8703;48.996;9.594;2022-07-04T04:26:53;2.28;;;2.00;;
17175;SDS011;8703;48.996;9.594;2022-07-04T04:29:21;2.05;;;1.80;;
17175;SDS011;8703;48.996;9.594;2022-07-04T04:31:48;3.03;;;1.80;;
17175;SDS011;8703;48.996;9.594;2022-07-04T04:34:15;3.13;;;1.75;;
17175;SDS011;8703;48.996;9.594;2022-07-04T04:36:43;2.00;;;1.77;;
17175;SDS011;8703;48.996;9.594;2022-07-04T04:39:10;4.47;;;1.90;;
17175;SDS011;8703;48.996;9.594;2022-07-04T04:41:38;3.10;;;1.90;;
17175;SDS011;8703;48.996;9.594;2022-07-04T04:44:08;2.28;;;1.73;;
17175;SDS011;8703;48.996;9.594;2022-07-04T04:46:35;2.22;;;2.03;;
17175;SDS011;8703;48.996;9.594;2022-07-04T04:49:02;3.03;;;2.38;;
17175;SDS011;8703;48.996;9.594;2022-07-04T04:51:30;3.08;;;2.00;;
17175;SDS011;8703;48.996;9.594;2022-07-04T04:53:57;2.30;;;1.98;;
17175;SDS011;8703;48.996;9.594;2022-07-04T04:56:25;3.00;;;2.08;;
17175;SDS011;8703;48.996;9.594;2022-07-04T04:58:52;3.38;;;2.30;;
17175;SDS011;8703;48.996;9.594;2022-07-04T05:01:21;2.27;;;2.00;;
17175;SDS011;8703;48.996;9.594;2022-07-04T05:03:48;3.92;;;2.20;;
17175;SDS011;8703;48.996;9.594;2022-07-04T05:06:15;2.20;;;1.95;;
17175;SDS011;8703;48.996;9.594;2022-07-04T05:08:43;3.83;;;2.00;;
17175;SDS011;8703;48.996;9.594;2022-07-04T05:11:10;2.28;;;1.85;;
17175;SDS011;8703;48.996;9.594;2022-07-04T05:13:38;3.05;;;2.05;;
17175;SDS011;8703;48.996;9.594;2022-07-04T05:16:05;3.10;;;2.40;;
17175;SDS011;8703;48.996;9.594;2022-07-04T05:18:34;4.03;;;2.08;;
17175;SDS011;8703;48.996;9.594;2022-07-04T05:21:01;4.65;;;2.60;;
17175;SDS011;8703;48.996;9.594;2022-07-04T05:23:28;2.38;;;2.00;;
17175;SDS011;8703;48.996;9.594;2022-07-04T05:25:56;2.03;;;1.80;;
17175;SDS011;8703;48.996;9.594;2022-07-04T05:28:23;3.85;;;2.25;;
17175;SDS011;8703;48.996;9.594;2022-07-04T05:30:50;2.85;;;2.13;;
17175;SDS011;8703;48.996;9.594;2022-07-04T05:33:18;4.80;;;2.60;;
17175;SDS011;8703;48.996;9.594;2022-07-04T05:35:47;3.30;;;2.03;;
17175;SDS011;8703;48.996;9.594;2022-07-04T05:38:14;2.17;;;1.98;;
17175;SDS011;8703;48.996;9.594;2022-07-04T05:40:41;4.85;;;2.38;;
17175;SDS011;8703;48.996;9.594;2022-07-04T05:43:09;4.43;;;2.10;;
17175;SDS011;8703;48.996;9.594;2022-07-04T05:45:36;3.28;;;2.00;;
17175;SDS011;8703;48.996;9.594;2022-07-04T05:48:04;3.72;;;2.40;;
17175;SDS011;8703;48.996;9.594;2022-07-04T05:50:31;4.68;;;2.20;;
17175;SDS011;8703;48.996;9.594;2022-07-04T05:53:01;3.00;;;2.20;;
17175;SDS011;8703;48.996;9.594;2022-07-04T05:55:28;4.95;;;2.15;;
17175;SDS011;8703;48.996;9.594;2022-07-04T05:57:56;5.00;;;2.10;;
17175;SDS011;8703;48.996;9.594;2022-07-04T06:00:23;3.95;;;2.25;;
17175;SDS011;8703;48.996;9.594;2022-07-04T06:02:50;3.88;;;2.25;;
17175;SDS011;8703;48.996;9.594;2022-07-04T06:05:18;4.15;;;2.10;;
17175;SDS011;8703;48.996;9.594;2022-07-04T06:07:45;2.88;;;2.28;;
17175;SDS011;8703;48.996;9.594;2022-07-04T06:10:14;2.47;;;2.10;;
17175;SDS011;8703;48.996;9.594;2022-07-04T06:12:42;4.70;;;2.30;;
17175;SDS011;8703;48.996;9.594;2022-07-04T06:15:09;3.75;;;2.00;;
17175;SDS011;8703;48.996;9.594;2022-07-04T06:17:37;3.47;;;2.30;;
17175;SDS011;8703;48.996;9.594;2022-07-04T06:20:05;4.88;;;2.30;;
17175;SDS011;8703;48.996;9.594;2022-07-04T06:22:38;5.05;;;2.20;;
17175;SDS011;8703;48.996;9.594;2022-07-04T06:25:10;2.20;;;2.00;;
17175;SDS011;8703;48.996;9.594;2022-07-04T06:27:38;2.75;;;2.22;;
17175;SDS011;8703;48.996;9.594;2022-07-04T06:30:06;3.47;;;2.25;;
17175;SDS011;8703;48.996;9.594;2022-07-04T06:32:41;3.38;;;2.30;;
17175;SDS011;8703;48.996;9.594;2022-07-04T06:35:09;4.38;;;2.10;;
17175;SDS011;8703;48.996;9.594;2022-07-04T06:37:54;3.92;;;2.05;;
17175;SDS011;8703;48.996;9.594;2022-07-04T06:40:21;5.47;;;2.30;;
17175;SDS011;8703;48.996;9.594;2022-07-04T06:42:50;3.38;;;1.98;;
17175;SDS011;8703;48.996;9.594;2022-07-04T06:45:18;3.25;;;2.10;;
17175;SDS011;8703;48.996;9.594;2022-07-04T06:47:46;2.50;;;2.00;;
17175;SDS011;8703;48.996;9.594;2022-07-04T06:50:13;5.47;;;2.00;;
17175;SDS011;8703;48.996;9.594;2022-07-04T06:52:41;3.38;;;1.80;;
17175;SDS011;8703;48.996;9.594;2022-07-04T06:55:08;3.00;;;2.00;;
17175;SDS011;8703;48.996;9.594;2022-07-04T06:57:35;4.18;;;2.00;;
17175;SDS011;8703;48.996;9.594;2022-07-04T07:00:06;2.38;;;1.92;;
17175;SDS011;8703;48.996;9.594;2022-07-04T07:02:34;3.35;;;2.28;;
17175;SDS011;8703;48.996;9.594;2022-07-04T07:05:03;3.72;;;2.00;;
17175;SDS011;8703;48.996;9.594;2022-07-04T07:07:32;3.25;;;2.10;;
17175;SDS011;8703;48.996;9.594;2022-07-04T07:09:59;8.70;;;2.10;;
17175;SDS011;8703;48.996;9.594;2022-07-04T07:12:27;2.00;;;1.80;;
17175;SDS011;8703;48.996;9.594;2022-07-04T07:14:55;3.55;;;2.00;;
17175;SDS011;8703;48.996;9.594;2022-07-04T07:17:24;4.15;;;2.00;;
17175;SDS011;8703;48.996;9.594;2022-07-04T07:19:51;2.47;;;1.80;;
17175;SDS011;8703;48.996;9.594;2022-07-04T07:22:19;3.78;;;1.90;;
17175;SDS011;8703;48.996;9.594;2022-07-04T07:24:46;2.08;;;1.88;;
17175;SDS011;8703;48.996;9.594;2022-07-04T07:27:14;2.53;;;1.75;;
17175;SDS011;8703;48.996;9.594;2022-07-04T07:29:41;2.17;;;1.98;;
17175;SDS011;8703;48.996;9.594;2022-07-04T07:32:08;3.58;;;2.15;;
17175;SDS011;8703;48.996;9.594;2022-07-04T07:34:37;2.88;;;1.90;;
17175;SDS011;8703;48.996;9.594;2022-07-04T07:37:05;2.53;;;2.00;;
17175;SDS011;8703;48.996;9.594;2022-07-04T07:39:32;4.32;;;2.20;;
17175;SDS011;8703;48.996;9.594;2022-07-04T07:42:00;2.50;;;1.88;;
17175;SDS011;8703;48.996;9.594;2022-07-04T07:44:27;4.07;;;2.15;;
17175;SDS011;8703;48.996;9.594;2022-07-04T07:46:54;3.05;;;1.88;;
17175;SDS011;8703;48.996;9.594;2022-07-04T07:49:22;4.43;;;1.80;;
17175;SDS011;8703;48.996;9.594;2022-07-04T07:51:50;2.70;;;1.80;;
17175;SDS011;8703;48.996;9.594;2022-07-04T07:54:18;3.38;;;1.95;;
17175;SDS011;8703;48.996;9.594;2022-07-04T07:56:45;3.65;;;2.00;;
17175;SDS011;8703;48.996;9.594;2022-07-04T07:59:12;5.22;;;1.92;;
17175;SDS011;8703;48.996;9.594;2022-07-04T08:01:40;4.50;;;2.05;;
17175;SDS011;8703;48.996;9.594;2022-07-04T08:04:07;2.72;;;1.85;;
17175;SDS011;8703;48.996;9.594;2022-07-04T08:06:53;2.55;;;1.70;;
17175;SDS011;8703;48.996;9.594;2022-07-04T08:09:21;2.53;;;2.10;;
17175;SDS011;8703;48.996;9.594;2022-07-04T08:11:48;2.17;;;1.98;;
17175;SDS011;8703;48.996;9.594;2022-07-04T08:14:15;4.95;;;2.05;;
17175;SDS011;8703;48.996;9.594;2022-07-04T08:16:43;3.10;;;1.92;;
17175;SDS011;8703;48.996;9.594;2022-07-04T08:19:10;2.90;;;1.80;;
17175;SDS011;8703;48.996;9.594;2022-07-04T08:21:37;3.28;;;1.95;;
17175;SDS011;8703;48.996;9.594;2022-07-04T08:24:06;1.90;;;1.80;;
17175;SDS011;8703;48.996;9.594;2022-07-04T08:26:34;3.67;;;2.00;;
17175;SDS011;8703;48.996;9.594;2022-07-04T08:29:01;4.57;;;2.10;;
17175;SDS011;8703;48.996;9.594;2022-07-04T08:31:29;2.63;;;1.83;;
17175;SDS011;8703;48.996;9.594;2022-07-04T08:33:56;3.28;;;1.90;;
17175;SDS011;8703;48.996;9.594;2022-07-04T08:36:24;3.47;;;1.90;;
17175;SDS011;8703;48.996;9.594;2022-07-04T08:38:51;3.80;;;2.00;;
17175;SDS011;8703;48.996;9.594;2022-07-04T08:41:20;3.40;;;1.80;;
17175;SDS011;8703;48.996;9.594;2022-07-04T08:43:47;3.72;;;2.00;;
17175;SDS011;8703;48.996;9.594;2022-07-04T08:46:15;2.38;;;1.75;;
17175;SDS011;8703;48.996;9.594;2022-07-04T08:48:48;2.88;;;1.90;;
17175;SDS011;8703;48.996;9.594;2022-07-04T08:51:19;2.38;;;1.95;;
17175;SDS011;8703;48.996;9.594;2022-07-04T08:53:55;2.05;;;1.65;;
17175;SDS011;8703;48.996;9.594;2022-07-04T08:56:24;3.45;;;2.03;;
17175;SDS011;8703;48.996;9.594;2022-07-04T08:59:10;3.50;;;2.00;;
17175;SDS011;8703;48.996;9.594;2022-07-04T09:01:38;2.47;;;2.00;;
17175;SDS011;8703;48.996;9.594;2022-07-04T09:04:06;3.63;;;1.90;;
17175;SDS011;8703;48.996;9.594;2022-07-04T09:06:34;3.33;;;1.88;;
17175;SDS011;8703;48.996;9.594;2022-07-04T09:09:01;3.78;;;2.00;;
17175;SDS011;8703;48.996;9.594;2022-07-04T09:11:30;3.55;;;2.05;;
17175;SDS011;8703;48.996;9.594;2022-07-04T09:13:57;3.20;;;2.10;;
17175;SDS011;8703;48.996;9.594;2022-07-04T09:16:25;4.05;;;1.70;;
17175;SDS011;8703;48.996;9.594;2022-07-04T09:18:53;4.97;;;2.03;;
17175;SDS011;8703;48.996;9.594;2022-07-04T09:21:21;4.07;;;1.80;;
17175;SDS011;8703;48.996;9.594;2022-07-04T09:24:05;1.63;;;1.42;;
17175;SDS011;8703;48.996;9.594;2022-07-04T09:26:34;3.05;;;1.70;;
17175;SDS011;8703;48.996;9.594;2022-07-04T09:29:07;2.97;;;2.10;;
17175;SDS011;8703;48.996;9.594;2022-07-04T09:31:35;4.00;;;1.65;;
17175;SDS011;8703;48.996;9.594;2022-07-04T09:34:04;3.35;;;1.80;;
17175;SDS011;8703;48.996;9.594;2022-07-04T09:36:32;4.28;;;1.80;;
17175;SDS011;8703;48.996;9.594;2022-07-04T09:39:08;3.70;;;1.80;;
17175;SDS011;8703;48.996;9.594;2022-07-04T09:41:53;3.40;;;1.75;;
17175;SDS011;8703;48.996;9.594;2022-07-04T09:44:22;2.88;;;1.67;;
17175;SDS011;8703;48.996;9.594;2022-07-04T09:46:50;1.90;;;1.70;;
17175;SDS011;8703;48.996;9.594;2022-07-04T09:49:18;2.97;;;1.70;;
17175;SDS011;8703;48.996;9.594;2022-07-04T09:51:46;3.60;;;1.85;;
17175;SDS011;8703;48.996;9.594;2022-07-04T09:54:25;3.92;;;1.58;;
17175;SDS011;8703;48.996;9.594;2022-07-04T09:56:58;3.20;;;1.20;;
17175;SDS011;8703;48.996;9.594;2022-07-04T09:59:26;4.00;;;1.52;;
17175;SDS011;8703;48.996;9.594;2022-07-04T10:02:07;3.42;;;1.45;;
17175;SDS011;8703;48.996;9.594;2022-07-04T10:04:43;1.80;;;1.50;;
17175;SDS011;8703;48.996;9.594;2022-07-04T10:07:11;3.13;;;1.40;;
17175;SDS011;8703;48.996;9.594;2022-07-04T10:09:43;1.90;;;1.50;;
17175;SDS011;8703;48.996;9.594;2022-07-04T10:12:12;2.42;;;1.58;;
17175;SDS011;8703;48.996;9.594;2022-07-04T10:14:51;2.65;;;1.60;;
17175;SDS011;8703;48.996;9.594;2022-07-04T10:17:19;2.15;;;1.38;;
17175;SDS011;8703;48.996;9.594;2022-07-04T10:19:47;2.75;;;1.30;;
17175;SDS011;8703;48.996;9.594;2022-07-04T10:22:15;4.53;;;1.60;;
17175;SDS011;8703;48.996;9.594;2022-07-04T10:24:44;1.77;;;1.45;;
17175;SDS011;8703;48.996;9.594;2022-07-04T10:27:12;2.85;;;1.52;;
17175;SDS011;8703;48.996;9.594;2022-07-04T10:29:40;2.42;;;1.38;;
17175;SDS011;8703;48.996;9.594;2022-07-04T10:32:08;2.55;;;1.48;;
17175;SDS011;8703;48.996;9.594;2022-07-04T10:34:38;3.13;;;1.40;;
17175;SDS011;8703;48.996;9.594;2022-07-04T10:37:06;3.15;;;1.35;;
17175;SDS011;8703;48.996;9.594;2022-07-04T10:39:34;3.88;;;1.60;;
17175;SDS011;8703;48.996;9.594;2022-07-04T10:42:02;1.98;;;1.70;;
17175;SDS011;8703;48.996;9.594;2022-07-04T10:44:32;3.38;;;1.40;;
17175;SDS011;8703;48.996;9.594;2022-07-04T10:47:02;1.90;;;1.65;;
17175;SDS011;8703;48.996;9.594;2022-07-04T10:49:29;4.93;;;2.00;;
17175;SDS011;8703;48.996;9.594;2022-07-04T10:52:10;2.42;;;1.48;;
17175;SDS011;8703;48.996;9.594;2022-07-04T10:54:40;4.60;;;1.60;;
17175;SDS011;8703;48.996;9.594;2022-07-04T10:57:15;1.80;;;1.50;;
17175;SDS011;8703;48.996;9.594;2022-07-04T11:02:31;3.05;;;1.60;;
17175;SDS011;8703;48.996;9.594;2022-07-04T11:05:00;3.65;;;1.23;;
17175;SDS011;8703;48.996;9.594;2022-07-04T11:10:21;3.22;;;1.73;;
17175;SDS011;8703;48.996;9.594;2022-07-04T11:13:01;3.03;;;1.60;;
17175;SDS011;8703;48.996;9.594;2022-07-04T11:16:00;3.92;;;1.92;;
17175;SDS011;8703;48.996;9.594;2022-07-04T11:18:28;2.20;;;1.60;;
17175;SDS011;8703;48.996;9.594;2022-07-04T11:20:56;4.28;;;1.60;;
17175;SDS011;8703;48.996;9.594;2022-07-04T11:23:23;2.72;;;1.58;;
17175;SDS011;8703;48.996;9.594;2022-07-04T11:25:51;3.65;;;1.48;;
17175;SDS011;8703;48.996;9.594;2022-07-04T11:28:21;2.58;;;1.42;;
17175;SDS011;8703;48.996;9.594;2022-07-04T11:30:50;2.58;;;1.70;;
17175;SDS011;8703;48.996;9.594;2022-07-04T11:33:20;2.40;;;1.60;;
17175;SDS011;8703;48.996;9.594;2022-07-04T11:36:00;4.65;;;1.70;;
17175;SDS011;8703;48.996;9.594;2022-07-04T11:38:42;1.67;;;1.55;;
17175;SDS011;8703;48.996;9.594;2022-07-04T11:41:14;3.13;;;1.45;;
17175;SDS011;8703;48.996;9.594;2022-07-04T11:44:02;4.30;;;1.58;;
17175;SDS011;8703;48.996;9.594;2022-07-04T11:46:48;5.00;;;1.58;;
17175;SDS011;8703;48.996;9.594;2022-07-04T11:49:16;2.95;;;1.42;;
17175;SDS011;8703;48.996;9.594;2022-07-04T11:51:46;4.07;;;1.40;;
17175;SDS011;8703;48.996;9.594;2022-07-04T11:54:14;5.13;;;1.92;;
17175;SDS011;8703;48.996;9.594;2022-07-04T11:56:43;3.25;;;1.30;;
17175;SDS011;8703;48.996;9.594;2022-07-04T11:59:12;2.97;;;1.50;;
17175;SDS011;8703;48.996;9.594;2022-07-04T12:01:40;4.38;;;1.52;;
17175;SDS011;8703;48.996;9.594;2022-07-04T12:04:15;3.25;;;1.30;;
17175;SDS011;8703;48.996;9.594;2022-07-04T12:06:45;2.70;;;1.20;;
17175;SDS011;8703;48.996;9.594;2022-07-04T12:09:13;2.75;;;1.40;;
17175;SDS011;8703;48.996;9.594;2022-07-04T12:11:55;4.38;;;1.40;;
17175;SDS011;8703;48.996;9.594;2022-07-04T12:14:23;2.15;;;1.48;;
17175;SDS011;8703;48.996;9.594;2022-07-04T12:19:50;3.35;;;1.20;;
17175;SDS011;8703;48.996;9.594;2022-07-04T12:25:10;2.40;;;1.40;;
17175;SDS011;8703;48.996;9.594;2022-07-04T12:27:54;1.77;;;1.48;;
17175;SDS011;8703;48.996;9.594;2022-07-04T12:30:23;1.88;;;1.20;;
17175;SDS011;8703;48.996;9.594;2022-07-04T12:32:52;4.18;;;1.33;;
17175;SDS011;8703;48.996;9.594;2022-07-04T12:35:34;2.63;;;1.50;;
17175;SDS011;8703;48.996;9.594;2022-07-04T12:38:05;3.28;;;1.40;;
17175;SDS011;8703;48.996;9.594;2022-07-04T12:40:34;3.28;;;1.25;;
17175;SDS011;8703;48.996;9.594;2022-07-04T12:43:03;2.67;;;1.58;;
17175;SDS011;8703;48.996;9.594;2022-07-04T12:45:43;2.35;;;1.50;;
17175;SDS011;8703;48.996;9.594;2022-07-04T12:48:19;2.38;;;1.40;;
17175;SDS011;8703;48.996;9.594;2022-07-04T12:50:49;1.83;;;1.10;;
17175;SDS011;8703;48.996;9.594;2022-07-04T12:53:18;2.55;;;1.40;;
17175;SDS011;8703;48.996;9.594;2022-07-04T12:55:46;3.45;;;1.40;;
17175;SDS011;8703;48.996;9.594;2022-07-04T12:58:14;2.83;;;1.60;;
17175;SDS011;8703;48.996;9.594;2022-07-04T13:00:42;2.20;;;1.20;;
17175;SDS011;8703;48.996;9.594;2022-07-04T13:03:09;2.78;;;1.38;;
17175;SDS011;8703;48.996;9.594;2022-07-04T13:05:37;2.75;;;1.33;;
17175;SDS011;8703;48.996;9.594;2022-07-04T13:08:06;2.60;;;1.40;;
17175;SDS011;8703;48.996;9.594;2022-07-04T13:10:34;1.98;;;1.20;;
17175;SDS011;8703;48.996;9.594;2022-07-04T13:13:01;3.22;;;1.40;;
17175;SDS011;8703;48.996;9.594;2022-07-04T13:15:29;1.55;;;1.27;;
17175;SDS011;8703;48.996;9.594;2022-07-04T13:17:56;4.00;;;1.30;;
17175;SDS011;8703;48.996;9.594;2022-07-04T13:20:24;2.60;;;1.35;;
17175;SDS011;8703;48.996;9.594;2022-07-04T13:22:51;3.40;;;1.55;;
17175;SDS011;8703;48.996;9.594;2022-07-04T13:25:20;2.88;;;1.30;;
17175;SDS011;8703;48.996;9.594;2022-07-04T13:27:48;2.33;;;1.30;;
17175;SDS011;8703;48.996;9.594;2022-07-04T13:30:15;1.98;;;1.40;;
17175;SDS011;8703;48.996;9.594;2022-07-04T13:32:43;2.03;;;1.38;;
17175;SDS011;8703;48.996;9.594;2022-07-04T13:35:10;2.88;;;1.33;;
17175;SDS011;8703;48.996;9.594;2022-07-04T13:37:38;5.68;;;1.45;;
17175;SDS011;8703;48.996;9.594;2022-07-04T13:40:05;2.78;;;1.27;;
17175;SDS011;8703;48.996;9.594;2022-07-04T13:42:36;1.90;;;1.48;;
17175;SDS011;8703;48.996;9.594;2022-07-04T13:45:21;3.33;;;1.25;;
17175;SDS011;8703;48.996;9.594;2022-07-04T13:47:48;2.72;;;1.40;;
17175;SDS011;8703;48.996;9.594;2022-07-04T13:50:16;4.32;;;1.60;;
17175;SDS011;8703;48.996;9.594;2022-07-04T13:52:43;2.80;;;1.50;;
17175;SDS011;8703;48.996;9.594;2022-07-04T13:55:11;2.65;;;1.40;;
17175;SDS011;8703;48.996;9.594;2022-07-04T13:57:39;2.00;;;1.48;;
17175;SDS011;8703;48.996;9.594;2022-07-04T14:00:07;2.03;;;1.50;;
17175;SDS011;8703;48.996;9.594;2022-07-04T14:02:35;3.58;;;1.30;;
17175;SDS011;8703;48.996;9.594;2022-07-04T14:05:03;2.55;;;1.25;;
17175;SDS011;8703;48.996;9.594;2022-07-04T14:07:30;2.10;;;1.33;;
17175;SDS011;8703;48.996;9.594;2022-07-04T14:09:58;2.63;;;1.40;;
17175;SDS011;8703;48.996;9.594;2022-07-04T14:12:26;2.15;;;1.13;;
17175;SDS011;8703;48.996;9.594;2022-07-04T14:14:55;3.53;;;1.40;;
17175;SDS011;8703;48.996;9.594;2022-07-04T14:17:22;2.22;;;1.30;;
17175;SDS011;8703;48.996;9.594;2022-07-04T14:19:50;2.90;;;1.20;;
17175;SDS011;8703;48.996;9.594;2022-07-04T14:22:17;2.55;;;1.35;;
17175;SDS011;8703;48.996;9.594;2022-07-04T14:24:45;2.42;;;1.05;;
17175;SDS011;8703;48.996;9.594;2022-07-04T14:27:12;2.13;;;1.33;;
17175;SDS011;8703;48.996;9.594;2022-07-04T14:29:40;2.63;;;1.20;;
17175;SDS011;8703;48.996;9.594;2022-07-04T14:32:09;2.28;;;1.35;;
17175;SDS011;8703;48.996;9.594;2022-07-04T14:34:36;3.38;;;1.70;;
17175;SDS011;8703;48.996;9.594;2022-07-04T14:37:03;1.67;;;1.20;;
17175;SDS011;8703;48.996;9.594;2022-07-04T14:39:31;4.38;;;1.33;;
17175;SDS011;8703;48.996;9.594;2022-07-04T14:41:58;1.50;;;1.10;;
17175;SDS011;8703;48.996;9.594;2022-07-04T14:44:26;3.22;;;1.27;;
17175;SDS011;8703;48.996;9.594;2022-07-04T14:46:53;2.97;;;1.10;;
17175;SDS011;8703;48.996;9.594;2022-07-04T14:49:22;2.88;;;1.20;;
17175;SDS011;8703;48.996;9.594;2022-07-04T14:51:49;1.63;;;1.10;;
17175;SDS011;8703;48.996;9.594;2022-07-04T14:54:18;1.77;;;1.20;;
17175;SDS011;8703;48.996;9.594;2022-07-04T14:56:45;4.10;;;1.17;;
17175;SDS011;8703;48.996;9.594;2022-07-04T14:59:12;1.48;;;1.25;;
17175;SDS011;8703;48.996;9.594;2022-07-04T15:01:40;2.72;;;1.05;;
17175;SDS011;8703;48.996;9.594;2022-07-04T15:04:07;1.40;;;1.00;;
17175;SDS011;8703;48.996;9.594;2022-07-04T15:06:36;2.58;;;1.00;;
17175;SDS011;8703;48.996;9.594;2022-07-04T15:09:03;2.60;;;1.20;;
17175;SDS011;8703;48.996;9.594;2022-07-04T15:11:31;2.47;;;1.40;;
17175;SDS011;8703;48.996;9.594;2022-07-04T15:13:58;2.90;;;1.30;;
17175;SDS011;8703;48.996;9.594;2022-07-04T15:16:26;2.85;;;1.20;;
17175;SDS011;8703;48.996;9.594;2022-07-04T15:18:53;2.42;;;1.20;;
17175;SDS011;8703;48.996;9.594;2022-07-04T15:21:21;1.42;;;1.25;;